Time;durP1;ratioP1;P1;durP2;ratioP2;P2;SDS_P1;SDS_P2;PMS_P1;PMS_P2;Temp;Humidity;BMP_temperature;BMP_pressure;BME280_temperature;BME280_humidity;BME280_pressure;Samples;Min_cycle;Max_cycle;Signal;HPM_P1;HPM_P2
2022/07/13 00:01:41;;;;;;;5.28;2.25;;;15.10;99.90;;;;;;5047568;28;20022;-86
2022/07/13 00:04:07;;;;;;;4.40;1.63;;;15.10;99.90;;;;;;5025870;28;20025;-86
2022/07/13 00:06:32;;;;;;;3.38;1.60;;;15.00;99.90;;;;;;5039694;28;20021;-90
2022/07/13 00:09:00;;;;;;;2.65;1.35;;;15.00;99.90;;;;;;5040451;28;20700;-90
2022/07/13 00:11:25;;;;;;;3.15;1.50;;;14.90;99.90;;;;;;5025454;28;20034;-85
2022/07/13 00:13:52;;;;;;;4.75;1.50;;;14.90;99.90;;;;;;5043410;28;20080;-84
2022/07/13 00:16:19;;;;;;;6.07;2.30;;;14.90;99.90;;;;;;5041431;28;20088;-89
2022/07/13 00:18:45;;;;;;;3.00;1.70;;;14.70;99.90;;;;;;5037218;28;20048;-85
2022/07/13 00:21:11;;;;;;;4.28;1.23;;;14.70;99.90;;;;;;5021778;28;20032;-87
2022/07/13 00:23:36;;;;;;;13.23;2.33;;;14.60;99.90;;;;;;5025249;28;20033;-88
2022/07/13 00:26:03;;;;;;;4.10;1.73;;;14.70;99.90;;;;;;5041892;28;20081;-84
2022/07/13 00:28:29;;;;;;;7.13;1.90;;;14.50;99.90;;;;;;5024212;28;20442;-87
2022/07/13 00:30:57;;;;;;;4.90;1.85;;;14.50;99.90;;;;;;5027296;28;20046;-86
2022/07/13 00:33:23;;;;;;;8.13;1.77;;;14.50;99.90;;;;;;5050382;28;20022;-83
2022/07/13 00:35:49;;;;;;;6.05;1.95;;;14.50;99.90;;;;;;5047039;28;20548;-89
2022/07/13 00:38:15;;;;;;;7.40;1.80;;;14.50;99.90;;;;;;5025334;28;20021;-86
2022/07/13 00:40:43;;;;;;;4.78;1.92;;;14.50;99.90;;;;;;5025901;28;20104;-86
2022/07/13 00:43:08;;;;;;;;;;;14.50;99.90;;;;;;5024901;28;20033;-86
2022/07/13 00:45:38;;;;;;;4.35;1.92;;;14.40;99.90;;;;;;5025024;28;19917;-92
2022/07/13 00:48:05;;;;;;;6.55;2.03;;;14.40;99.90;;;;;;5028531;28;20081;-89
2022/07/13 00:50:31;;;;;;;8.20;2.38;;;14.30;99.90;;;;;;5028907;28;20029;-88
2022/07/13 00:52:57;;;;;;;4.43;2.08;;;14.40;99.90;;;;;;5042992;28;20097;-89
2022/07/13 00:55:27;;;;;;;5.90;2.67;;;14.30;99.90;;;;;;5040225;28;20956;-90
2022/07/13 00:57:54;;;;;;;6.55;2.60;;;14.20;99.90;;;;;;5027810;28;20052;-90
2022/07/13 01:00:24;;;;;;;4.50;2.28;;;14.20;99.90;;;;;;5027018;28;20033;-89
2022/07/13 01:02:51;;;;;;;5.85;2.10;;;14.20;99.90;;;;;;5014232;28;20041;-91
2022/07/13 01:05:17;;;;;;;6.35;1.85;;;14.20;99.90;;;;;;5047880;28;20036;-88
2022/07/13 01:07:45;;;;;;;4.65;2.08;;;14.10;99.90;;;;;;5046116;28;20052;-88
2022/07/13 01:10:12;;;;;;;6.72;2.30;;;14.00;99.90;;;;;;5045088;28;20036;-89
2022/07/13 01:12:41;;;;;;;3.37;1.77;;;14.00;99.90;;;;;;5043431;28;20084;-91
2022/07/13 01:15:09;;;;;;;4.35;2.00;;;13.90;99.90;;;;;;5043551;28;20097;-88
2022/07/13 01:17:38;;;;;;;7.53;1.80;;;13.90;99.90;;;;;;5027173;28;20110;-87
2022/07/13 01:20:09;;;;;;;3.95;1.85;;;13.90;99.90;;;;;;5044014;28;20008;-91
2022/07/13 01:22:55;;;;;;;5.00;1.67;;;14.00;99.90;;;;;;5044369;28;20036;-91
2022/07/13 01:25:21;;;;;;;4.90;1.98;;;14.00;99.90;;;;;;5027251;28;20477;-89
2022/07/13 01:27:48;;;;;;;4.88;1.90;;;13.90;99.90;;;;;;5043226;28;20009;-91
2022/07/13 01:30:16;;;;;;;4.90;1.77;;;13.90;99.90;;;;;;5039054;28;20508;-90
2022/07/13 01:32:48;;;;;;;;;;;13.90;99.90;;;;;;5048416;28;20033;-90
2022/07/13 01:35:18;;;;;;;3.67;1.60;;;13.80;99.90;;;;;;5025939;28;19905;-91
2022/07/13 01:37:45;;;;;;;4.85;2.30;;;13.80;99.90;;;;;;5042157;28;20029;-89
2022/07/13 01:40:13;;;;;;;6.35;2.70;;;13.70;99.90;;;;;;5043127;28;20029;-93
2022/07/13 01:42:51;;;;;;;6.18;3.30;;;13.60;99.90;;;;;;5050367;28;20025;-90
2022/07/13 01:45:24;;;;;;;8.00;2.40;;;13.60;99.90;;;;;;5057730;28;20057;-88
2022/07/13 01:47:55;;;;;;;6.25;2.45;;;13.60;99.90;;;;;;5030502;28;20022;-91
2022/07/13 01:50:25;;;;;;;5.30;1.88;;;13.50;99.90;;;;;;5046187;28;20037;-88
2022/07/13 01:52:53;;;;;;;6.90;2.83;;;13.50;99.90;;;;;;5046989;28;20022;-92
2022/07/13 01:55:19;;;;;;;4.13;1.85;;;13.50;99.90;;;;;;5033230;28;20029;-88
2022/07/13 01:57:45;;;;;;;6.65;2.70;;;13.50;99.90;;;;;;5041631;28;20022;-91
2022/07/13 02:00:16;;;;;;;5.72;2.63;;;13.40;99.90;;;;;;5036061;28;20617;-89
2022/07/13 02:02:42;;;;;;;4.88;2.25;;;13.40;99.90;;;;;;5019943;28;20056;-90
2022/07/13 02:05:09;;;;;;;4.88;1.95;;;13.40;99.90;;;;;;5036130;28;20093;-90
2022/07/13 02:07:35;;;;;;;;;;;13.50;99.90;;;;;;5035603;28;20064;-90
2022/07/13 02:10:01;;;;;;;5.00;2.38;;;13.50;99.90;;;;;;5019326;28;19905;-91
2022/07/13 02:12:27;;;;;;;5.28;2.30;;;13.50;99.90;;;;;;5055031;23;20080;-55
2022/07/13 02:14:52;;;;;;;8.77;2.63;;;13.40;99.90;;;;;;5030498;28;20094;-55
2022/07/13 02:17:18;;;;;;;8.73;2.95;;;13.40;99.90;;;;;;5030927;28;20366;-55
2022/07/13 02:19:43;;;;;;;9.18;2.42;;;13.40;99.90;;;;;;5030744;28;20112;-55
2022/07/13 02:22:09;;;;;;;7.90;2.42;;;13.40;99.90;;;;;;5030676;28;20109;-55
2022/07/13 02:24:35;;;;;;;5.15;2.35;;;13.40;99.90;;;;;;5013211;28;20033;-55
2022/07/13 02:27:00;;;;;;;6.78;2.85;;;13.50;99.90;;;;;;5030889;28;20026;-55
2022/07/13 02:29:26;;;;;;;7.38;3.10;;;13.40;99.90;;;;;;5012719;28;20116;-55
2022/07/13 02:31:52;;;;;;;8.65;2.63;;;13.40;99.90;;;;;;5012755;28;20048;-55
2022/07/13 02:34:18;;;;;;;7.95;2.75;;;13.40;99.90;;;;;;5030592;28;20129;-55
2022/07/13 02:36:43;;;;;;;6.70;2.42;;;13.40;99.90;;;;;;5030512;28;20067;-56
2022/07/13 02:39:09;;;;;;;5.32;2.20;;;13.40;99.90;;;;;;5030698;28;20483;-55
2022/07/13 02:41:35;;;;;;;7.05;3.10;;;13.40;99.90;;;;;;5030236;28;20071;-55
2022/07/13 02:44:00;;;;;;;8.00;2.78;;;13.30;99.90;;;;;;5029304;28;20029;-56
2022/07/13 02:46:26;;;;;;;6.10;2.70;;;13.30;99.90;;;;;;5030353;28;20080;-56
2022/07/13 02:48:52;;;;;;;8.10;2.53;;;13.30;99.90;;;;;;5030471;28;20064;-55
2022/07/13 02:51:18;;;;;;;11.02;2.85;;;13.20;99.90;;;;;;5030236;28;20052;-55
2022/07/13 02:53:44;;;;;;;8.52;2.70;;;13.30;99.90;;;;;;5030226;28;20021;-56
2022/07/13 02:56:09;;;;;;;4.88;2.47;;;13.30;99.90;;;;;;5030150;28;20465;-55
2022/07/13 02:58:35;;;;;;;5.82;2.72;;;13.20;99.90;;;;;;5030055;28;20366;-55
2022/07/13 03:01:01;;;;;;;8.18;2.78;;;13.20;99.90;;;;;;5030094;28;20117;-56
2022/07/13 03:03:26;;;;;;;6.85;2.35;;;13.00;99.90;;;;;;5030097;28;20025;-55
2022/07/13 03:05:52;;;;;;;8.82;2.35;;;13.00;99.90;;;;;;5030215;28;20068;-55
2022/07/13 03:08:18;;;;;;;7.75;3.28;;;12.80;99.90;;;;;;5030139;28;20105;-56
2022/07/13 03:10:43;;;;;;;5.00;2.38;;;12.80;99.90;;;;;;5029710;28;20048;-55
2022/07/13 03:13:09;;;;;;;7.97;2.42;;;12.80;99.90;;;;;;5029834;28;20049;-56
2022/07/13 03:15:34;;;;;;;6.65;2.42;;;12.90;99.90;;;;;;5030031;28;20469;-56
2022/07/13 03:18:00;;;;;;;4.10;2.00;;;12.90;99.90;;;;;;5029944;28;20108;-56
2022/07/13 03:20:26;;;;;;;6.30;2.28;;;12.80;99.90;;;;;;5030181;28;20037;-56
2022/07/13 03:22:51;;;;;;;8.85;3.22;;;12.80;99.90;;;;;;5029762;28;20061;-56
2022/07/13 03:25:17;;;;;;;11.98;2.80;;;12.90;99.90;;;;;;5029762;28;20029;-56
2022/07/13 03:27:43;;;;;;;14.45;2.88;;;12.90;99.90;;;;;;5030068;28;20028;-56
2022/07/13 03:30:10;;;;;;;4.85;2.45;;;13.00;99.90;;;;;;5029805;28;20369;-56
2022/07/13 03:32:36;;;;;;;5.88;2.70;;;13.00;99.90;;;;;;5029844;28;20021;-56
2022/07/13 03:35:02;;;;;;;7.60;3.42;;;13.00;99.90;;;;;;5029814;28;20033;-55
2022/07/13 03:37:28;;;;;;;8.00;3.15;;;13.10;99.90;;;;;;5030104;28;20062;-56
2022/07/13 03:39:54;;;;;;;6.35;2.53;;;13.00;99.90;;;;;;5029618;28;20021;-56
2022/07/13 03:42:20;;;;;;;10.63;3.33;;;13.10;99.90;;;;;;5029646;28;20087;-56
2022/07/13 03:44:46;;;;;;;6.95;3.28;;;13.10;99.90;;;;;;5029503;28;20029;-56
2022/07/13 03:47:11;;;;;;;9.00;4.05;;;13.20;99.90;;;;;;5029724;28;20037;-56
2022/07/13 03:49:37;;;;;;;6.10;3.20;;;13.20;99.90;;;;;;5029639;28;20033;-56
2022/07/13 03:52:03;;;;;;;7.28;3.25;;;13.30;99.90;;;;;;5029504;28;20037;-56
2022/07/13 03:54:28;;;;;;;8.60;3.28;;;13.40;99.90;;;;;;5029427;28;20523;-56
2022/07/13 03:56:54;;;;;;;13.40;3.58;;;13.50;99.90;;;;;;5033348;28;20147;-56
2022/07/13 03:59:20;;;;;;;8.98;3.63;;;13.50;99.90;;;;;;5033428;28;20033;-57
2022/07/13 04:01:45;;;;;;;9.50;3.78;;;13.50;99.90;;;;;;5033357;28;20037;-56
2022/07/13 04:04:11;;;;;;;7.90;3.38;;;13.60;99.90;;;;;;5033266;28;20056;-56
2022/07/13 04:06:37;;;;;;;6.55;3.25;;;13.60;99.90;;;;;;5033207;28;20088;-57
2022/07/13 04:09:04;;;;;;;13.85;3.58;;;13.70;99.90;;;;;;5033185;28;20029;-56
2022/07/13 04:11:29;;;;;;;7.28;3.08;;;13.80;99.90;;;;;;5032997;28;20029;-56
2022/07/13 04:13:55;;;;;;;9.05;2.90;;;13.80;99.90;;;;;;5032968;28;20052;-56
2022/07/13 04:16:21;;;;;;;10.90;3.42;;;13.90;99.90;;;;;;5033064;28;20659;-56
2022/07/13 04:18:46;;;;;;;6.53;3.20;;;14.00;99.90;;;;;;5015290;28;20021;-56
2022/07/13 04:21:13;;;;;;;6.95;2.70;;;14.00;99.90;;;;;;5033110;28;20065;-56
2022/07/13 04:23:40;;;;;;;5.43;3.03;;;14.10;99.90;;;;;;5032955;28;20536;-57
2022/07/13 04:26:06;;;;;;;6.43;2.80;;;14.10;99.90;;;;;;5033012;28;20056;-57
2022/07/13 04:28:31;;;;;;;5.35;2.70;;;14.20;99.90;;;;;;5032874;28;20122;-57
2022/07/13 04:30:57;;;;;;;8.45;3.20;;;14.30;99.90;;;;;;5032597;28;20079;-56
2022/07/13 04:33:23;;;;;;;5.78;1.73;;;14.40;99.90;;;;;;5032765;28;20151;-57
2022/07/13 04:35:49;;;;;;;2.95;1.50;;;14.40;99.90;;;;;;5032860;28;20029;-57
2022/07/13 04:38:15;;;;;;;9.82;2.38;;;14.50;99.90;;;;;;5032465;28;20029;-55
2022/07/13 04:40:41;;;;;;;5.70;1.90;;;14.60;99.90;;;;;;5032660;28;20022;-57
2022/07/13 04:43:07;;;;;;;4.72;1.98;;;14.70;99.90;;;;;;5032515;28;20556;-56
2022/07/13 04:45:32;;;;;;;7.07;2.20;;;14.80;99.90;;;;;;5032336;28;20489;-56
2022/07/13 04:47:59;;;;;;;4.00;1.38;;;14.80;99.90;;;;;;5032462;28;20116;-56
2022/07/13 04:50:25;;;;;;;5.50;1.90;;;14.90;99.90;;;;;;5032489;28;20480;-56
2022/07/13 04:52:50;;;;;;;2.10;1.38;;;15.00;99.90;;;;;;5032274;28;20065;-56
2022/07/13 04:55:17;;;;;;;4.65;1.95;;;15.10;99.90;;;;;;5032217;28;20426;-56
2022/07/13 04:57:43;;;;;;;4.15;2.08;;;15.20;99.90;;;;;;5032450;28;20033;-56
2022/07/13 05:00:09;;;;;;;8.70;2.05;;;15.30;99.90;;;;;;5032313;28;20524;-56
2022/07/13 05:02:36;;;;;;;4.90;2.25;;;15.40;99.90;;;;;;5032026;28;20026;-56
2022/07/13 05:05:03;;;;;;;5.43;1.77;;;15.60;99.90;;;;;;5032161;28;20025;-56
2022/07/13 05:07:29;;;;;;;3.47;1.92;;;15.50;99.90;;;;;;5040971;28;20275;-56
2022/07/13 05:09:55;;;;;;;6.90;1.70;;;15.70;99.90;;;;;;5050930;28;20036;-57
2022/07/13 05:12:21;;;;;;;3.22;1.90;;;15.80;99.90;;;;;;5051001;28;20045;-57
2022/07/13 05:14:47;;;;;;;3.25;1.60;;;15.80;99.90;;;;;;5050259;28;20025;-56
2022/07/13 05:17:13;;;;;;;9.98;2.08;;;15.90;99.90;;;;;;5051586;28;20362;-56
2022/07/13 05:19:39;;;;;;;7.05;1.90;;;16.00;99.90;;;;;;5051953;28;20032;-55
2022/07/13 05:22:05;;;;;;;6.88;1.92;;;16.00;99.90;;;;;;5051360;28;20028;-55
2022/07/13 05:24:30;;;;;;;2.97;1.55;;;16.10;99.90;;;;;;5051618;28;20108;-55
2022/07/13 05:26:56;;;;;;;7.05;1.92;;;16.20;99.90;;;;;;5051756;28;20033;-55
2022/07/13 05:29:22;;;;;;;3.78;1.70;;;16.20;99.90;;;;;;5051534;28;20069;-55
2022/07/13 05:31:48;;;;;;;5.70;2.10;;;16.20;99.90;;;;;;5051484;28;20040;-56
2022/07/13 05:34:14;;;;;;;4.60;1.52;;;16.30;99.90;;;;;;5051006;28;20029;-56
2022/07/13 05:36:40;;;;;;;3.25;1.77;;;16.40;99.90;;;;;;5050583;28;20400;-56
2022/07/13 05:39:05;;;;;;;6.13;1.80;;;16.40;99.90;;;;;;5016285;28;20492;-56
2022/07/13 05:41:32;;;;;;;6.78;1.60;;;16.50;99.90;;;;;;5050408;28;20100;-56
2022/07/13 05:43:59;;;;;;;3.95;1.73;;;16.60;99.90;;;;;;5033016;28;20025;-56
2022/07/13 05:46:25;;;;;;;5.63;1.63;;;16.60;99.90;;;;;;5050691;28;20025;-55
2022/07/13 05:48:51;;;;;;;9.38;3.50;;;16.80;99.90;;;;;;5050134;28;20032;-56
2022/07/13 05:51:17;;;;;;;3.60;1.40;;;17.00;99.90;;;;;;5049448;28;20472;-55
2022/07/13 05:53:43;;;;;;;3.85;1.73;;;17.00;99.90;;;;;;5049555;28;20063;-56
2022/07/13 05:56:09;;;;;;;2.78;1.00;;;17.10;99.90;;;;;;5050560;28;20029;-56
2022/07/13 05:58:35;;;;;;;2.47;1.17;;;17.20;99.90;;;;;;5050506;28;20063;-56
2022/07/13 06:01:01;;;;;;;3.67;1.42;;;17.20;99.90;;;;;;5050494;28;20140;-56
2022/07/13 06:03:26;;;;;;;2.95;1.60;;;17.30;99.90;;;;;;5050435;28;20095;-56
2022/07/13 06:05:53;;;;;;;5.22;1.63;;;17.40;99.90;;;;;;5050610;28;20809;-55
2022/07/13 06:08:18;;;;;;;2.67;1.58;;;17.50;99.90;;;;;;5048602;28;20627;-55
2022/07/13 06:10:44;;;;;;;6.13;1.67;;;17.50;99.90;;;;;;5050694;28;20033;-55
2022/07/13 06:13:10;;;;;;;2.22;1.58;;;17.60;99.90;;;;;;5050453;28;20077;-56
2022/07/13 06:15:36;;;;;;;4.07;1.42;;;17.60;99.90;;;;;;5050505;28;20087;-55
2022/07/13 06:18:02;;;;;;;4.47;1.50;;;17.80;99.90;;;;;;5050382;28;20124;-56
2022/07/13 06:20:27;;;;;;;6.30;1.73;;;17.90;99.90;;;;;;5050572;28;20107;-56
2022/07/13 06:23:11;;;;;;;3.72;1.88;;;18.00;99.90;;;;;;5050567;28;20025;-56
2022/07/13 06:25:38;;;;;;;4.88;1.95;;;18.10;99.90;;;;;;5050606;28;20396;-56
2022/07/13 06:28:05;;;;;;;3.13;1.67;;;18.10;99.90;;;;;;5050535;28;20033;-56
2022/07/13 06:30:31;;;;;;;7.13;1.70;;;18.10;99.90;;;;;;5050097;28;20045;-56
2022/07/13 06:32:57;;;;;;;4.90;1.48;;;18.20;99.90;;;;;;5050247;28;20021;-56
2022/07/13 06:35:23;;;;;;;2.70;1.40;;;18.30;99.90;;;;;;5050142;28;20503;-56
2022/07/13 06:37:49;;;;;;;2.30;1.27;;;18.30;99.90;;;;;;5050103;28;20051;-56
2022/07/13 06:40:15;;;;;;;3.60;1.55;;;18.40;99.90;;;;;;5050204;28;20036;-56
2022/07/13 06:42:41;;;;;;;4.82;1.60;;;18.50;99.90;;;;;;5050099;28;20052;-56
2022/07/13 06:45:07;;;;;;;4.82;1.40;;;18.60;99.90;;;;;;5050134;28;20550;-56
2022/07/13 06:47:33;;;;;;;5.05;1.70;;;18.70;99.90;;;;;;5049881;28;20665;-56
2022/07/13 06:49:59;;;;;;;4.22;1.60;;;18.80;99.90;;;;;;5049917;28;20058;-55
2022/07/13 06:52:24;;;;;;;6.10;1.55;;;18.80;99.90;;;;;;5049824;28;20040;-56
2022/07/13 06:54:50;;;;;;;2.05;1.33;;;18.90;99.90;;;;;;5049960;28;20029;-55
2022/07/13 06:57:15;;;;;;;6.07;1.20;;;19.00;99.90;;;;;;5049879;28;20033;-55
2022/07/13 06:59:42;;;;;;;5.07;2.00;;;19.10;99.90;;;;;;5050003;28;20032;-56
2022/07/13 07:02:08;;;;;;;5.63;1.80;;;19.20;99.90;;;;;;5049731;28;20033;-56
2022/07/13 07:04:34;;;;;;;2.95;1.73;;;19.30;99.90;;;;;;5049775;28;20427;-56
2022/07/13 07:07:00;;;;;;;4.53;1.30;;;19.30;99.90;;;;;;5050008;28;20117;-56
2022/07/13 07:09:26;;;;;;;5.17;1.80;;;19.50;99.90;;;;;;5049701;28;20056;-56
2022/07/13 07:11:52;;;;;;;12.10;2.97;;;19.50;99.90;;;;;;5049462;28;20080;-56
2022/07/13 07:14:18;;;;;;;6.38;1.30;;;19.50;99.90;;;;;;5049671;28;20037;-55
2022/07/13 07:16:43;;;;;;;6.22;2.20;;;19.60;99.90;;;;;;5049446;28;20035;-55
2022/07/13 07:19:09;;;;;;;6.18;1.58;;;19.60;99.90;;;;;;5049742;28;20479;-56
2022/07/13 07:21:36;;;;;;;8.40;1.67;;;19.60;99.90;;;;;;5049542;28;20029;-55
2022/07/13 07:24:03;;;;;;;5.35;1.73;;;19.70;99.90;;;;;;5049502;28;20033;-55
2022/07/13 07:26:30;;;;;;;4.20;1.40;;;19.80;99.90;;;;;;5049663;28;20037;-55
2022/07/13 07:28:56;;;;;;;;;;;20.00;99.90;;;;;;5050050;28;20456;-56
2022/07/13 07:31:21;;;;;;;4.60;1.30;;;20.00;99.90;;;;;;5052300;28;19916;-55
2022/07/13 07:33:48;;;;;;;4.55;1.75;;;20.00;99.90;;;;;;5053668;28;20025;-55
2022/07/13 07:36:15;;;;;;;2.80;1.58;;;20.10;99.90;;;;;;5053956;28;20029;-55
2022/07/13 07:38:41;;;;;;;4.57;1.73;;;20.10;99.90;;;;;;5053572;28;20557;-55
2022/07/13 07:41:07;;;;;;;4.55;1.55;;;20.20;99.90;;;;;;5053644;28;20025;-55
2022/07/13 07:43:32;;;;;;;2.03;1.27;;;20.30;99.90;;;;;;5053413;28;20033;-54
2022/07/13 07:45:58;;;;;;;4.22;1.67;;;20.40;99.90;;;;;;5053339;28;20029;-55
2022/07/13 07:48:24;;;;;;;5.63;1.38;;;20.50;99.90;;;;;;5053480;28;20029;-55
2022/07/13 07:50:49;;;;;;;2.63;1.20;;;20.50;99.90;;;;;;5053357;28;20464;-55
2022/07/13 07:53:15;;;;;;;3.85;1.30;;;20.60;99.90;;;;;;5053160;28;20468;-57
2022/07/13 07:55:41;;;;;;;5.60;1.20;;;20.60;99.90;;;;;;5053328;28;20025;-55
2022/07/13 07:58:08;;;;;;;3.45;1.40;;;20.80;99.90;;;;;;5053224;28;20028;-56
2022/07/13 08:00:34;;;;;;;5.72;1.48;;;20.90;99.90;;;;;;5053270;28;20426;-55
2022/07/13 08:03:03;;;;;;;1.48;0.95;;;20.90;99.90;;;;;;5052715;28;20094;-55
2022/07/13 08:05:30;;;;;;;1.90;1.05;;;21.10;99.90;;;;;;5053116;28;20017;-55
2022/07/13 08:07:56;;;;;;;3.80;1.15;;;21.10;99.90;;;;;;5053054;28;20433;-57
2022/07/13 08:10:22;;;;;;;2.05;0.90;;;21.20;99.90;;;;;;5052873;28;20035;-57
2022/07/13 08:12:47;;;;;;;1.60;0.68;;;21.30;99.90;;;;;;5052484;28;20123;-57
2022/07/13 08:15:13;;;;;;;7.07;0.95;;;21.30;99.90;;;;;;5052947;28;20430;-57
2022/07/13 08:17:39;;;;;;;2.35;0.82;;;21.40;99.90;;;;;;5035072;28;20029;-56
2022/07/13 08:20:07;;;;;;;2.95;0.90;;;21.50;99.90;;;;;;5052927;28;20124;-54
2022/07/13 08:22:32;;;;;;;1.88;0.93;;;21.50;99.90;;;;;;5052720;28;20036;-56
2022/07/13 08:24:58;;;;;;;2.15;1.20;;;21.60;99.90;;;;;;5052876;28;20040;-57
2022/07/13 08:27:25;;;;;;;3.45;1.00;;;21.70;99.90;;;;;;5051406;28;20036;-56
2022/07/13 08:29:51;;;;;;;1.67;1.00;;;21.80;99.90;;;;;;5052091;28;20028;-56
2022/07/13 08:32:17;;;;;;;2.72;0.90;;;21.80;99.90;;;;;;5051721;28;20040;-55
2022/07/13 08:40:11;;;;;;;1.85;0.93;;;22.00;99.90;;;;;;5052149;28;20056;-55
2022/07/13 08:42:38;;;;;;;1.92;1.00;;;22.10;99.90;;;;;;5052040;28;20053;-54
2022/07/13 08:45:05;;;;;;;4.95;0.93;;;22.20;97.70;;;;;;5034036;28;20029;-54
2022/07/13 08:47:31;;;;;;;1.13;0.80;;;22.20;97.20;;;;;;5051984;28;20039;-54
2022/07/13 08:50:01;;;;;;;4.25;0.80;;;22.30;96.80;;;;;;5051651;28;20029;-54
2022/07/13 08:52:28;;;;;;;3.42;1.40;;;22.40;97.00;;;;;;5049697;28;20128;-55
2022/07/13 08:54:54;;;;;;;;;;;22.40;97.60;;;;;;5051987;28;20025;-55
2022/07/13 08:57:20;;;;;;;3.30;0.90;;;22.50;97.50;;;;;;5051530;28;19920;-55
2022/07/13 08:59:46;;;;;;;2.70;1.00;;;22.50;96.40;;;;;;5051542;28;20537;-55
2022/07/13 09:02:12;;;;;;;4.90;1.17;;;22.70;96.60;;;;;;5050922;28;20029;-56
2022/07/13 09:04:39;;;;;;;3.17;1.13;;;22.80;96.30;;;;;;5050494;28;20035;-55
2022/07/13 09:07:11;;;;;;;1.05;0.73;;;22.80;95.30;;;;;;5050320;28;20139;-55
2022/07/13 09:09:38;;;;;;;5.65;0.57;;;23.00;95.30;;;;;;5051054;28;20484;-55
2022/07/13 09:12:17;;;;;;;49.90;30.52;;;23.10;96.40;;;;;;5051327;28;20061;-55
2022/07/13 09:14:48;;;;;;;3.38;1.10;;;23.30;93.00;;;;;;5051068;28;20154;-54
2022/07/13 09:17:33;;;;;;;1.27;0.55;;;23.40;91.30;;;;;;5048462;28;20524;-54
2022/07/13 09:20:03;;;;;;;2.78;0.63;;;23.50;90.20;;;;;;5048506;28;20040;-55
2022/07/13 09:22:29;;;;;;;3.13;0.55;;;23.60;90.00;;;;;;5048205;28;20029;-55
2022/07/13 09:24:54;;;;;;;1.77;0.70;;;23.60;87.20;;;;;;5050906;28;20021;-55
2022/07/13 09:27:21;;;;;;;2.08;0.80;;;23.70;87.20;;;;;;5051306;28;20480;-55
2022/07/13 09:29:47;;;;;;;10.35;1.20;;;23.70;87.60;;;;;;5051474;28;20099;-55
2022/07/13 09:32:13;;;;;;;15.32;2.25;;;23.90;88.20;;;;;;5051149;28;20139;-56
2022/07/13 09:34:51;;;;;;;2.30;0.63;;;24.00;84.80;;;;;;5050965;28;20029;-54
2022/07/13 09:37:19;;;;;;;4.78;1.00;;;24.10;84.60;;;;;;5051451;28;20116;-55
2022/07/13 09:40:06;;;;;;;2.03;0.70;;;24.10;85.00;;;;;;5051363;28;20041;-55
2022/07/13 09:42:33;;;;;;;10.30;1.40;;;24.20;83.10;;;;;;5051362;28;20013;-55
2022/07/13 09:47:49;;;;;;;3.63;0.65;;;24.50;81.90;;;;;;5051500;28;20036;-55
2022/07/13 09:50:19;;;;;;;1.65;0.77;;;24.60;83.40;;;;;;5051465;28;20475;-56
2022/07/13 09:52:49;;;;;;;9.82;1.33;;;24.70;83.40;;;;;;5050409;28;20078;-55
2022/07/13 09:55:20;;;;;;;1.40;0.60;;;24.80;80.20;;;;;;5049570;28;20025;-56
2022/07/13 09:57:49;;;;;;;1.00;0.50;;;24.70;78.40;;;;;;5050277;28;20025;-55
2022/07/13 10:00:17;;;;;;;3.10;0.80;;;24.80;79.80;;;;;;5049404;28;20035;-55
2022/07/13 10:02:47;;;;;;;2.63;1.15;;;24.90;82.00;;;;;;5050810;28;20031;-56
2022/07/13 10:05:16;;;;;;;2.47;0.63;;;25.20;76.00;;;;;;5050665;28;20029;-55
2022/07/13 10:07:43;;;;;;;2.95;0.70;;;25.40;73.00;;;;;;5050732;28;20025;-55
2022/07/13 10:10:11;;;;;;;2.53;0.80;;;25.50;79.50;;;;;;5049827;28;20055;-55
2022/07/13 10:12:37;;;;;;;1.20;0.50;;;25.90;79.40;;;;;;5049859;28;20069;-55
2022/07/13 10:15:04;;;;;;;1.48;0.95;;;26.00;76.30;;;;;;5050369;28;20029;-55
2022/07/13 10:17:30;;;;;;;2.05;0.90;;;26.10;76.00;;;;;;5047481;28;20110;-55
2022/07/13 10:19:56;;;;;;;9.10;1.80;;;26.30;76.60;;;;;;5049810;28;20021;-55
2022/07/13 10:22:25;;;;;;;2.58;1.20;;;26.10;71.00;;;;;;5049818;28;20430;-55
2022/07/13 10:24:57;;;;;;;5.65;1.30;;;26.00;71.10;;;;;;5049444;28;20025;-55
2022/07/13 10:27:31;;;;;;;5.07;1.60;;;26.20;69.20;;;;;;5045939;28;20029;-54
2022/07/13 10:30:08;;;;;;;3.38;1.00;;;26.40;73.40;;;;;;5048699;28;20170;-55
2022/07/13 10:32:39;;;;;;;2.40;1.00;;;26.50;71.80;;;;;;5046524;28;20033;-56
2022/07/13 10:35:10;;;;;;;3.55;1.35;;;26.40;68.50;;;;;;5047639;28;20029;-55
2022/07/13 10:38:03;;;;;;;3.78;1.25;;;26.50;68.00;;;;;;5049287;28;20482;-55
2022/07/13 10:40:31;;;;;;;4.13;1.23;;;26.30;68.10;;;;;;5049459;28;20017;-55
2022/07/13 10:43:06;;;;;;;2.97;1.00;;;26.50;67.60;;;;;;5050104;28;20021;-55
2022/07/13 10:45:34;;;;;;;4.35;1.15;;;26.40;65.40;;;;;;5050116;28;20039;-55
2022/07/13 10:48:06;;;;;;;3.60;0.95;;;26.50;70.30;;;;;;5050103;28;20465;-54
2022/07/13 10:50:44;;;;;;;4.97;0.85;;;26.70;66.80;;;;;;5049314;28;20067;-54
2022/07/13 10:53:10;;;;;;;3.28;0.73;;;26.80;67.90;;;;;;5046882;28;20052;-55
2022/07/13 10:55:46;;;;;;;3.45;0.75;;;26.80;66.60;;;;;;5051445;28;20055;-55
2022/07/13 10:58:30;;;;;;;3.45;0.70;;;26.70;71.00;;;;;;5057739;28;20112;-55
2022/07/13 11:00:56;;;;;;;1.27;0.68;;;26.90;68.10;;;;;;5040667;28;20020;-56
2022/07/13 11:03:27;;;;;;;5.53;0.73;;;27.00;66.00;;;;;;5054931;28;20039;-55
2022/07/13 11:06:26;;;;;;;3.28;0.85;;;27.10;66.60;;;;;;5057321;28;20070;-55
2022/07/13 11:09:06;;;;;;;3.50;0.68;;;26.80;65.50;;;;;;5057545;28;20120;-55
2022/07/13 11:11:32;;;;;;;0.85;0.50;;;26.90;66.10;;;;;;5052368;28;20079;-55
2022/07/13 11:13:58;;;;;;;4.45;0.77;;;27.00;65.70;;;;;;5047692;28;20045;-55
2022/07/13 11:16:48;;;;;;;2.55;0.80;;;26.80;64.80;;;;;;5047275;28;20453;-55
2022/07/13 11:19:15;;;;;;;0.82;0.45;;;26.60;65.70;;;;;;5046943;28;20029;-56
2022/07/13 11:22:03;;;;;;;2.03;0.50;;;26.70;69.00;;;;;;5050141;28;20112;-55
2022/07/13 11:27:21;;;;;;;0.93;0.47;;;27.00;64.90;;;;;;5049332;28;19920;-55
2022/07/13 11:29:49;;;;;;;2.08;0.50;;;27.20;64.70;;;;;;5048024;28;20021;-55
2022/07/13 11:32:20;;;;;;;2.22;0.73;;;27.20;63.10;;;;;;5049014;28;20128;-55
2022/07/13 11:34:49;;;;;;;1.52;0.40;;;27.20;62.60;;;;;;5046731;28;20052;-55
2022/07/13 11:37:22;;;;;;;1.85;0.60;;;27.00;63.30;;;;;;5047360;28;20025;-55
2022/07/13 11:39:48;;;;;;;1.38;0.50;;;27.30;68.10;;;;;;5046716;28;20064;-55
2022/07/13 11:42:14;;;;;;;1.67;0.52;;;27.40;66.30;;;;;;5029368;28;20056;-55
2022/07/13 11:44:40;;;;;;;1.55;0.43;;;27.60;66.80;;;;;;5047548;28;20035;-55
2022/07/13 11:47:09;;;;;;;2.67;0.47;;;27.80;65.50;;;;;;5047101;28;20021;-54
2022/07/13 11:49:49;;;;;;;0.90;0.40;;;27.80;61.50;;;;;;5028603;28;20349;-55
2022/07/13 11:52:18;;;;;;;3.00;0.45;;;27.80;62.60;;;;;;5046665;28;20712;-55
2022/07/13 11:55:01;;;;;;;1.75;0.35;;;28.20;62.80;;;;;;5050053;28;20029;-55
2022/07/13 11:57:28;;;;;;;3.08;0.60;;;28.50;67.00;;;;;;5027823;28;20033;-55
2022/07/13 12:00:01;;;;;;;2.78;0.40;;;28.70;60.00;;;;;;5046590;28;20020;-55
2022/07/13 12:02:26;;;;;;;4.05;0.65;;;28.70;60.00;;;;;;5045838;28;20021;-55
2022/07/13 12:04:52;;;;;;;2.20;0.60;;;28.50;60.10;;;;;;5046830;28;20028;-56
2022/07/13 12:07:23;;;;;;;1.85;0.70;;;28.40;59.40;;;;;;5047076;28;20481;-55
2022/07/13 12:09:53;;;;;;;11.35;1.13;;;28.20;61.30;;;;;;5047625;28;20025;-55
2022/07/13 12:12:22;;;;;;;5.90;0.68;;;28.00;60.30;;;;;;5047272;28;20053;-55
2022/07/13 12:14:50;;;;;;;1.60;0.55;;;27.80;61.90;;;;;;5046637;28;20037;-55
2022/07/13 12:17:16;;;;;;;3.38;0.70;;;27.50;59.10;;;;;;5049560;28;20029;-55
2022/07/13 12:19:42;;;;;;;1.83;0.68;;;27.40;66.10;;;;;;5050469;28;20048;-55
2022/07/13 12:22:08;;;;;;;3.33;0.80;;;27.40;62.70;;;;;;5050436;28;20017;-55
2022/07/13 12:24:35;;;;;;;4.57;0.80;;;27.50;61.20;;;;;;5050381;28;20074;-55
2022/07/13 12:27:02;;;;;;;1.52;0.40;;;27.50;65.80;;;;;;5032866;28;20025;-54
2022/07/13 12:29:30;;;;;;;1.67;0.50;;;27.50;61.60;;;;;;5050416;28;20040;-55
2022/07/13 12:31:59;;;;;;;5.68;1.20;;;27.40;61.90;;;;;;5050412;28;20078;-55
2022/07/13 12:34:25;;;;;;;2.22;0.63;;;27.40;66.60;;;;;;5050124;28;20138;-55
2022/07/13 12:36:51;;;;;;;1.55;0.63;;;27.30;63.00;;;;;;5053620;28;20033;-55
2022/07/13 12:39:36;;;;;;;4.85;0.50;;;27.40;64.10;;;;;;5060082;28;20476;-55
2022/07/13 12:42:03;;;;;;;0.82;0.50;;;27.70;68.30;;;;;;5064032;28;20051;-55
2022/07/13 12:44:30;;;;;;;0.43;0.40;;;28.00;66.10;;;;;;5064933;28;20017;-55
2022/07/13 12:46:59;;;;;;;4.03;0.85;;;28.40;61.00;;;;;;5064067;28;20770;-54
2022/07/13 12:49:33;;;;;;;1.95;0.73;;;28.70;59.50;;;;;;5048230;28;20025;-54
2022/07/13 12:52:03;;;;;;;3.55;0.50;;;29.00;62.70;;;;;;5063993;28;20032;-55
2022/07/13 12:54:48;;;;;;;0.85;0.40;;;29.30;58.10;;;;;;5050161;28;20021;-54
2022/07/13 12:57:25;;;;;;;4.82;0.93;;;29.00;58.40;;;;;;5050966;28;20654;-55
2022/07/13 13:00:12;;;;;;;1.15;0.60;;;29.40;63.10;;;;;;5050621;28;20452;-54
2022/07/13 13:02:39;;;;;;;0.38;0.28;;;29.50;58.70;;;;;;5050766;28;20071;-54